Time;durP1;ratioP1;P1;durP2;ratioP2;P2;SDS_P1;SDS_P2;PMS_P1;PMS_P2;Temp;Humidity;BMP_temperature;BMP_pressure;BME280_temperature;BME280_humidity;BME280_pressure;Samples;Min_cycle;Max_cycle;Signal;HPM_P1;HPM_P2
2023/02/16 00:00:32;;;;;;;275.90;136.43;;;;;;;;;;4906928;29;20039;-93
2023/02/16 00:02:58;;;;;;;262.35;129.93;;;;;;;;;;4922521;29;20163;-95
2023/02/16 00:05:31;;;;;;;270.60;128.02;;;;;;;;;;4922670;29;20048;-94
2023/02/16 00:07:58;;;;;;;273.77;126.97;;;;;;;;;;4905805;29;20067;-93
2023/02/16 00:10:25;;;;;;;234.10;111.00;;;;;;;;;;4922491;29;20024;-94
2023/02/16 00:15:37;;;;;;;177.30;88.53;;;;;;;;;;4922863;29;20043;-94
2023/02/16 00:18:04;;;;;;;130.18;62.90;;;;;;;;;;4922129;29;20072;-94
2023/02/16 00:20:30;;;;;;;108.75;53.35;;;;;;;;;;4904863;29;20040;-93
2023/02/16 00:22:57;;;;;;;97.15;50.63;;;;;;;;;;4922246;29;20020;-93
2023/02/16 00:25:23;;;;;;;92.65;47.58;;;;;;;;;;4905392;29;20029;-94
2023/02/16 00:27:50;;;;;;;91.25;48.25;;;;;;;;;;4904614;29;20032;-94
2023/02/16 00:36:23;;;;;;;107.22;49.75;;;;;;;;;;4921986;29;20051;-96
2023/02/16 00:38:50;;;;;;;111.82;50.72;;;;;;;;;;4905331;29;20335;-94
2023/02/16 00:44:16;;;;;;;92.05;45.72;;;;;;;;;;4922284;29;20048;-96
2023/02/16 00:49:47;;;;;;;89.78;46.08;;;;;;;;;;4922277;29;20027;-95
2023/02/16 00:52:22;;;;;;;85.68;45.22;;;;;;;;;;4921626;29;20319;-93
2023/02/16 00:54:48;;;;;;;96.68;47.30;;;;;;;;;;4921978;29;20471;-93
2023/02/16 00:57:17;;;;;;;124.93;57.92;;;;;;;;;;4921714;29;20415;-94
2023/02/16 00:59:43;;;;;;;125.65;60.90;;;;;;;;;;4921415;29;20411;-94
2023/02/16 01:02:09;;;;;;;128.90;59.78;;;;;;;;;;4921820;29;20036;-94
2023/02/16 01:04:35;;;;;;;124.95;57.97;;;;;;;;;;4904023;29;20040;-94
2023/02/16 01:12:30;;;;;;;103.40;50.72;;;;;;;;;;4922064;29;20051;-96
2023/02/16 01:14:57;;;;;;;107.47;53.55;;;;;;;;;;4904747;29;20032;-95
2023/02/16 01:17:23;;;;;;;113.82;55.28;;;;;;;;;;4921256;29;20107;-94
2023/02/16 01:34:03;;;;;;;97.03;49.05;;;;;;;;;;4941167;29;20035;-95
2023/02/16 01:36:32;;;;;;;101.72;49.50;;;;;;;;;;4923503;29;20039;-94
2023/02/16 01:38:59;;;;;;;96.40;48.88;;;;;;;;;;4923086;29;20040;-93
2023/02/16 01:41:44;;;;;;;101.30;49.55;;;;;;;;;;4940470;29;20039;-95
2023/02/16 01:44:34;;;;;;;101.38;49.95;;;;;;;;;;4932397;29;20023;-96
2023/02/16 01:47:06;;;;;;;114.45;53.40;;;;;;;;;;4831271;29;20046;-93
2023/02/16 01:49:32;;;;;;;122.93;58.25;;;;;;;;;;4846294;29;20038;-94
2023/02/16 01:52:11;;;;;;;120.95;56.47;;;;;;;;;;4846922;29;20026;-94
2023/02/16 01:54:55;;;;;;;121.25;58.25;;;;;;;;;;4830988;29;20075;-95
2023/02/16 01:57:33;;;;;;;131.18;60.20;;;;;;;;;;4830046;29;20303;-95
2023/02/16 02:00:25;;;;;;;128.45;61.70;;;;;;;;;;4830043;29;20069;-94
2023/02/16 02:05:33;;;;;;;137.18;63.35;;;;;;;;;;4831485;29;20511;-96
2023/02/16 02:05:44;;;;;;;;;;;;;;;;;;4848344;29;20087;-95
2023/02/16 02:08:24;;;;;;;155.20;69.28;;;;;;;;;;4833164;29;19908;-96
2023/02/16 02:11:09;;;;;;;166.85;73.07;;;;;;;;;;4832951;29;20137;-96
2023/02/16 02:13:41;;;;;;;201.70;77.53;;;;;;;;;;4832843;29;20038;-95
2023/02/16 02:16:07;;;;;;;290.00;91.43;;;;;;;;;;4848121;29;20036;-95
2023/02/16 02:18:33;;;;;;;312.95;92.20;;;;;;;;;;4848139;29;20034;-95
2023/02/16 02:23:47;;;;;;;308.45;93.75;;;;;;;;;;4888513;29;20039;-95
2023/02/16 02:26:22;;;;;;;329.70;103.38;;;;;;;;;;4926286;29;20118;-96
2023/02/16 02:28:55;;;;;;;302.55;97.65;;;;;;;;;;4926164;29;20039;-95
2023/02/16 02:38:32;;;;;;;284.23;99.70;;;;;;;;;;4943043;29;20433;-95
2023/02/16 02:41:04;;;;;;;302.65;112.72;;;;;;;;;;4832425;29;20444;-95
2023/02/16 02:43:41;;;;;;;350.00;130.75;;;;;;;;;;4832333;29;20116;-95
2023/02/16 02:49:29;;;;;;;368.48;136.35;;;;;;;;;;4848748;29;20096;-95
2023/02/16 02:51:55;;;;;;;334.88;126.53;;;;;;;;;;4832929;29;20030;-95
2023/02/16 03:02:59;;;;;;;196.85;94.15;;;;;;;;;;4847871;29;20057;-96
2023/02/16 03:05:27;;;;;;;184.07;92.43;;;;;;;;;;4847416;29;20046;-94
2023/02/16 03:07:56;;;;;;;178.20;89.97;;;;;;;;;;4831942;29;20045;-94
2023/02/16 03:13:20;;;;;;;174.32;89.25;;;;;;;;;;4847579;29;20045;-93
2023/02/16 03:15:47;;;;;;;182.15;90.88;;;;;;;;;;4928352;29;20040;-95
2023/02/16 03:29:20;;;;;;;133.05;73.00;;;;;;;;;;4923071;29;20055;-93
2023/02/16 03:34:50;;;;;;;128.52;71.07;;;;;;;;;;4923387;29;20079;-93
2023/02/16 03:37:16;;;;;;;126.53;70.15;;;;;;;;;;4906079;29;20055;-93
2023/02/16 03:42:27;;;;;;;129.45;68.63;;;;;;;;;;4923333;29;20043;-94
2023/02/16 03:44:53;;;;;;;134.30;71.85;;;;;;;;;;4923073;29;20368;-94
2023/02/16 03:47:20;;;;;;;131.18;71.22;;;;;;;;;;4906152;29;20032;-92
2023/02/16 03:49:46;;;;;;;123.93;68.43;;;;;;;;;;4922742;29;20028;-93
2023/02/16 03:52:12;;;;;;;129.40;69.97;;;;;;;;;;4906356;29;20071;-94
2023/02/16 03:54:38;;;;;;;137.25;69.70;;;;;;;;;;4925325;29;20024;-93
2023/02/16 03:57:04;;;;;;;126.82;66.97;;;;;;;;;;4925243;29;20035;-95
2023/02/16 03:59:30;;;;;;;119.78;61.60;;;;;;;;;;4941774;29;20039;-95
2023/02/16 04:01:56;;;;;;;120.78;61.83;;;;;;;;;;4942177;29;20063;-95
2023/02/16 04:04:22;;;;;;;118.40;61.90;;;;;;;;;;4924916;29;20093;-95
2023/02/16 04:06:50;;;;;;;118.07;59.67;;;;;;;;;;4941548;29;20042;-96
2023/02/16 04:09:17;;;;;;;111.25;57.95;;;;;;;;;;4924910;29;20118;-95
2023/02/16 04:14:38;;;;;;;106.30;56.55;;;;;;;;;;4865496;29;20130;-95
2023/02/16 04:17:04;;;;;;;106.25;56.50;;;;;;;;;;4851249;29;20045;-96
2023/02/16 04:19:30;;;;;;;110.53;57.33;;;;;;;;;;4850815;29;20429;-94
2023/02/16 04:21:56;;;;;;;108.35;57.40;;;;;;;;;;4849089;29;20065;-94
2023/02/16 04:24:22;;;;;;;107.50;56.67;;;;;;;;;;4864338;29;20117;-95
2023/02/16 04:26:48;;;;;;;108.45;58.65;;;;;;;;;;4848045;29;20054;-95
2023/02/16 04:29:14;;;;;;;107.05;58.20;;;;;;;;;;4848408;29;20073;-96
2023/02/16 04:37:47;;;;;;;106.90;58.17;;;;;;;;;;4864420;29;20068;-94
2023/02/16 04:40:14;;;;;;;108.18;59.60;;;;;;;;;;4868051;29;20110;-96
2023/02/16 04:42:43;;;;;;;109.55;59.17;;;;;;;;;;4874099;29;20086;-96
2023/02/16 04:45:09;;;;;;;111.63;60.55;;;;;;;;;;4857362;29;20042;-95
2023/02/16 04:47:35;;;;;;;107.95;58.40;;;;;;;;;;4848523;29;20049;-95
2023/02/16 04:50:01;;;;;;;109.43;60.83;;;;;;;;;;4879272;29;20430;-94
2023/02/16 04:52:27;;;;;;;107.95;59.47;;;;;;;;;;4911024;29;20020;-95
2023/02/16 04:54:54;;;;;;;102.38;56.53;;;;;;;;;;4921171;29;20059;-95
2023/02/16 04:57:21;;;;;;;108.20;58.95;;;;;;;;;;4940662;29;20027;-95
2023/02/16 04:59:47;;;;;;;111.85;59.53;;;;;;;;;;4940310;29;20079;-95
2023/02/16 05:05:17;;;;;;;106.18;56.40;;;;;;;;;;4940607;29;20026;-93
2023/02/16 05:07:44;;;;;;;107.30;56.03;;;;;;;;;;4923682;29;20058;-94
2023/02/16 05:10:10;;;;;;;120.05;60.85;;;;;;;;;;4932221;29;20020;-93
2023/02/16 05:15:21;;;;;;;151.00;72.10;;;;;;;;;;4921782;29;20046;-93
2023/02/16 05:18:24;;;;;;;149.60;70.18;;;;;;;;;;4921356;29;20107;-93
2023/02/16 05:23:34;;;;;;;135.02;67.63;;;;;;;;;;4927709;29;20009;-94
2023/02/16 05:26:01;;;;;;;126.68;65.90;;;;;;;;;;4940061;29;20411;-92
2023/02/16 05:28:27;;;;;;;129.00;66.63;;;;;;;;;;4921552;29;20084;-95
2023/02/16 05:30:53;;;;;;;133.30;65.90;;;;;;;;;;4921514;29;20040;-93
2023/02/16 05:36:54;;;;;;;189.90;84.13;;;;;;;;;;4935519;29;20074;-95
2023/02/16 05:39:21;;;;;;;164.43;74.97;;;;;;;;;;4866389;29;20044;-94
2023/02/16 05:41:47;;;;;;;118.20;59.88;;;;;;;;;;4874206;29;20066;-94
2023/02/16 05:44:13;;;;;;;106.78;56.83;;;;;;;;;;4867156;29;20057;-95
2023/02/16 05:52:29;;;;;;;142.23;71.07;;;;;;;;;;4977440;23;19922;-95
2023/02/16 05:54:55;;;;;;;127.65;64.95;;;;;;;;;;4943986;29;20042;-95
2023/02/16 05:57:21;;;;;;;117.15;62.13;;;;;;;;;;4944039;29;20348;-96
2023/02/16 05:59:47;;;;;;;156.90;83.15;;;;;;;;;;4926917;29;20324;-95
2023/02/16 06:05:33;;;;;;;167.48;77.78;;;;;;;;;;4937556;29;20026;-94
2023/02/16 06:07:59;;;;;;;188.80;84.78;;;;;;;;;;4926874;29;20020;-94
2023/02/16 06:10:25;;;;;;;265.05;102.85;;;;;;;;;;4926560;29;20534;-93
2023/02/16 06:12:52;;;;;;;271.55;105.20;;;;;;;;;;4924613;29;20107;-93
2023/02/16 06:15:18;;;;;;;302.27;111.65;;;;;;;;;;4907428;29;20079;-94
2023/02/16 06:20:51;;;;;;;263.80;103.55;;;;;;;;;;4946611;29;20083;-96
2023/02/16 06:23:17;;;;;;;276.65;108.88;;;;;;;;;;4945821;29;20032;-96
2023/02/16 06:25:44;;;;;;;248.70;105.28;;;;;;;;;;4943970;29;20028;-95
2023/02/16 06:28:10;;;;;;;223.77;97.20;;;;;;;;;;4927590;29;20016;-95
2023/02/16 06:30:36;;;;;;;225.63;94.85;;;;;;;;;;4944114;29;20028;-95
2023/02/16 06:33:03;;;;;;;227.98;97.82;;;;;;;;;;4930189;29;20030;-95
2023/02/16 06:35:29;;;;;;;246.40;106.35;;;;;;;;;;4924677;29;20044;-94
2023/02/16 06:37:55;;;;;;;246.27;108.60;;;;;;;;;;4924558;29;20017;-95
2023/02/16 06:40:22;;;;;;;229.18;101.07;;;;;;;;;;4926730;29;20020;-96
2023/02/16 06:42:48;;;;;;;205.77;98.13;;;;;;;;;;4943304;29;20296;-94
2023/02/16 06:45:14;;;;;;;185.85;88.85;;;;;;;;;;4926480;29;20031;-94
2023/02/16 06:50:59;;;;;;;223.38;115.72;;;;;;;;;;4940899;29;20339;-96
2023/02/16 06:53:25;;;;;;;168.63;87.70;;;;;;;;;;4915811;29;20042;-95
2023/02/16 06:55:51;;;;;;;149.75;73.43;;;;;;;;;;4907157;29;20028;-94
2023/02/16 06:58:17;;;;;;;155.23;77.28;;;;;;;;;;4923517;29;20075;-95
2023/02/16 07:00:44;;;;;;;158.05;78.53;;;;;;;;;;4907008;29;20036;-95
2023/02/16 07:06:13;;;;;;;117.68;62.00;;;;;;;;;;4904781;29;20043;-95
2023/02/16 07:08:39;;;;;;;110.13;61.40;;;;;;;;;;4906457;29;20025;-95
2023/02/16 07:11:06;;;;;;;111.07;61.10;;;;;;;;;;4931900;29;20032;-96
2023/02/16 07:13:35;;;;;;;106.28;58.15;;;;;;;;;;4908937;29;20484;-96
2023/02/16 07:16:02;;;;;;;103.93;55.83;;;;;;;;;;4905219;29;20037;-94
2023/02/16 07:21:33;;;;;;;96.85;52.75;;;;;;;;;;4921912;29;20038;-94
2023/02/16 07:23:59;;;;;;;102.72;54.28;;;;;;;;;;4931820;29;20028;-96
2023/02/16 07:26:26;;;;;;;97.95;53.97;;;;;;;;;;4929770;29;20296;-96
2023/02/16 07:28:52;;;;;;;103.38;57.55;;;;;;;;;;4911383;29;20423;-96
2023/02/16 07:31:18;;;;;;;113.32;60.15;;;;;;;;;;4906727;29;20036;-95
2023/02/16 07:36:48;;;;;;;105.40;58.20;;;;;;;;;;4928280;23;20067;-95
2023/02/16 07:39:15;;;;;;;102.63;56.92;;;;;;;;;;4928032;29;20047;-96
2023/02/16 07:41:43;;;;;;;104.80;56.92;;;;;;;;;;4917062;29;20028;-95
2023/02/16 07:44:09;;;;;;;105.22;63.50;;;;;;;;;;5086279;23;20067;-96
2023/02/16 07:46:38;;;;;;;107.50;59.95;;;;;;;;;;4950221;29;20044;-96
2023/02/16 07:52:08;;;;;;;115.13;62.40;;;;;;;;;;4924871;29;20035;-94
2023/02/16 07:54:34;;;;;;;106.15;59.70;;;;;;;;;;4906281;29;20029;-95
2023/02/16 07:57:00;;;;;;;120.97;66.85;;;;;;;;;;4906231;29;20416;-95
2023/02/16 07:59:26;;;;;;;119.32;65.40;;;;;;;;;;4905746;29;20038;-95
2023/02/16 08:01:52;;;;;;;118.85;64.18;;;;;;;;;;4922591;29;20032;-94
2023/02/16 08:04:18;;;;;;;118.38;63.58;;;;;;;;;;4905812;29;20074;-93
2023/02/16 08:06:45;;;;;;;134.80;73.78;;;;;;;;;;4905644;29;20043;-93
2023/02/16 08:09:12;;;;;;;125.10;68.28;;;;;;;;;;4922405;29;20043;-95
2023/02/16 08:11:38;;;;;;;143.73;78.65;;;;;;;;;;4905905;29;20032;-94
2023/02/16 08:14:04;;;;;;;127.03;67.55;;;;;;;;;;4921619;29;20024;-96
2023/02/16 08:16:30;;;;;;;100.35;57.67;;;;;;;;;;4941273;29;20039;-95
2023/02/16 08:22:46;;;;;;;97.47;53.20;;;;;;;;;;4941808;29;20086;-95
2023/02/16 08:25:14;;;;;;;108.63;56.33;;;;;;;;;;4941502;29;20031;-95
2023/02/16 08:27:40;;;;;;;108.20;59.47;;;;;;;;;;4941593;29;20032;-95
2023/02/16 08:30:11;;;;;;;120.75;64.55;;;;;;;;;;4941231;29;20403;-94
2023/02/16 08:32:39;;;;;;;110.32;60.25;;;;;;;;;;4905520;29;20418;-94
2023/02/16 08:35:05;;;;;;;106.03;60.03;;;;;;;;;;4922165;29;20028;-94
2023/02/16 08:37:32;;;;;;;104.78;56.63;;;;;;;;;;4921036;29;20036;-96
2023/02/16 08:39:59;;;;;;;105.97;56.53;;;;;;;;;;4922523;29;20028;-96
2023/02/16 08:42:26;;;;;;;98.30;53.75;;;;;;;;;;4930958;29;20043;-94
2023/02/16 08:44:52;;;;;;;96.53;55.72;;;;;;;;;;4924597;29;20099;-96
2023/02/16 08:47:19;;;;;;;95.55;55.70;;;;;;;;;;4939518;29;20024;-94
2023/02/16 08:49:46;;;;;;;90.63;53.03;;;;;;;;;;4931400;29;20031;-94
2023/02/16 08:52:13;;;;;;;92.53;53.10;;;;;;;;;;4912942;29;20032;-96
2023/02/16 08:54:42;;;;;;;106.03;57.53;;;;;;;;;;4931095;29;20032;-96
2023/02/16 08:57:12;;;;;;;102.03;56.13;;;;;;;;;;4954162;23;20051;-96
2023/02/16 08:59:38;;;;;;;94.00;53.80;;;;;;;;;;4924841;29;20028;-95
2023/02/16 09:02:04;;;;;;;99.35;51.90;;;;;;;;;;4926032;29;20027;-96
2023/02/16 09:07:35;;;;;;;88.90;51.25;;;;;;;;;;4948600;29;20035;-96
2023/02/16 09:10:03;;;;;;;93.28;53.78;;;;;;;;;;4940215;29;20049;-96
2023/02/16 09:12:32;;;;;;;91.03;51.08;;;;;;;;;;4948168;29;20027;-95
2023/02/16 09:14:58;;;;;;;89.03;50.42;;;;;;;;;;4933233;29;20027;-94
2023/02/16 09:17:25;;;;;;;94.18;49.58;;;;;;;;;;4940421;29;20063;-88
2023/02/16 09:19:52;;;;;;;95.75;50.58;;;;;;;;;;4935339;29;20312;-86
2023/02/16 09:22:18;;;;;;;89.78;51.67;;;;;;;;;;4940264;29;20059;-84
2023/02/16 09:24:45;;;;;;;266.20;115.93;;;;;;;;;;4940146;29;20020;-91
2023/02/16 10:02:07;;;;;;;115.53;56.70;;;;;;;;;;5549627;23;20092;-95
2023/02/16 10:05:07;;;;;;;112.00;55.42;;;;;;;;;;4923047;29;20206;-92
2023/02/16 10:07:34;;;;;;;88.80;50.67;;;;;;;;;;4917219;29;20335;-93
2023/02/16 10:10:02;;;;;;;88.45;50.85;;;;;;;;;;4919941;29;20036;-92
2023/02/16 10:12:32;;;;;;;82.88;49.88;;;;;;;;;;4921229;29;20076;-94
2023/02/16 10:15:06;;;;;;;77.07;47.88;;;;;;;;;;4920941;29;20064;-93
2023/02/16 10:17:36;;;;;;;78.28;47.95;;;;;;;;;;4904598;29;20032;-93
2023/02/16 10:20:08;;;;;;;88.03;48.92;;;;;;;;;;4921191;29;20028;-92
2023/02/16 10:22:37;;;;;;;78.93;46.60;;;;;;;;;;4921138;29;20031;-92
2023/02/16 10:25:08;;;;;;;70.70;45.58;;;;;;;;;;4924257;29;20036;-93
2023/02/16 10:27:38;;;;;;;70.85;44.05;;;;;;;;;;4906000;29;20107;-94
2023/02/16 10:30:34;;;;;;;75.85;45.08;;;;;;;;;;4904545;29;20037;-93
2023/02/16 10:39:37;;;;;;;67.22;42.58;;;;;;;;;;4829819;29;20440;-93
2023/02/16 10:42:12;;;;;;;76.40;47.08;;;;;;;;;;4815723;29;20083;-93
2023/02/16 10:44:44;;;;;;;74.30;45.83;;;;;;;;;;4841898;29;20125;-94
2023/02/16 10:47:26;;;;;;;63.03;41.00;;;;;;;;;;4832347;29;20065;-92
2023/02/16 10:49:53;;;;;;;67.90;42.15;;;;;;;;;;4832042;29;20438;-93
2023/02/16 10:52:19;;;;;;;65.82;41.88;;;;;;;;;;4847726;29;20033;-93
2023/02/16 10:54:45;;;;;;;62.00;39.08;;;;;;;;;;4824325;29;20022;-93
2023/02/16 10:57:24;;;;;;;54.47;36.55;;;;;;;;;;4832066;29;20053;-92
2023/02/16 10:59:50;;;;;;;58.65;37.67;;;;;;;;;;4836518;29;20038;-93
2023/02/16 11:02:35;;;;;;;66.25;40.50;;;;;;;;;;4829062;29;20119;-93
2023/02/16 11:05:03;;;;;;;58.72;40.97;;;;;;;;;;4829084;29;20045;-94
2023/02/16 11:07:30;;;;;;;64.10;39.72;;;;;;;;;;4833924;29;20425;-94
2023/02/16 11:09:59;;;;;;;55.80;36.60;;;;;;;;;;4887315;29;20036;-95
2023/02/16 11:12:31;;;;;;;64.05;37.65;;;;;;;;;;4907042;29;20415;-95
2023/02/16 11:15:02;;;;;;;62.15;38.70;;;;;;;;;;4906708;29;20039;-92
2023/02/16 11:17:28;;;;;;;56.70;36.22;;;;;;;;;;4914470;29;20028;-94
2023/02/16 11:20:05;;;;;;;53.60;36.63;;;;;;;;;;4892981;29;20051;-94
2023/02/16 11:22:38;;;;;;;55.53;37.15;;;;;;;;;;4919895;29;20051;-95
2023/02/16 11:25:21;;;;;;;62.13;40.65;;;;;;;;;;4910387;29;20036;-93
2023/02/16 11:27:58;;;;;;;59.67;38.42;;;;;;;;;;4919568;29;20028;-94
2023/02/16 11:30:44;;;;;;;55.60;36.95;;;;;;;;;;4906472;29;20070;-94
2023/02/16 11:33:25;;;;;;;55.65;35.65;;;;;;;;;;4921442;29;20036;-85
2023/02/16 11:46:24;;;;;;;55.60;36.30;;;;;;;;;;4918019;29;20051;-87
2023/02/16 11:48:54;;;;;;;53.35;35.67;;;;;;;;;;4922945;29;20028;-87
2023/02/16 11:51:35;;;;;;;51.45;34.80;;;;;;;;;;4922025;29;20419;-86
2023/02/16 11:54:03;;;;;;;52.60;34.42;;;;;;;;;;4904123;29;20092;-87
2023/02/16 11:56:31;;;;;;;64.82;40.60;;;;;;;;;;4886824;29;20056;-87
2023/02/16 11:59:18;;;;;;;72.95;44.80;;;;;;;;;;4903832;29;20036;-86
2023/02/16 12:02:03;;;;;;;55.75;36.08;;;;;;;;;;4903455;29;20124;-86
2023/02/16 12:04:51;;;;;;;296.10;165.15;;;;;;;;;;4902486;29;20135;-87
2023/02/16 12:07:26;;;;;;;305.42;183.10;;;;;;;;;;4921620;29;20099;-88
2023/02/16 12:09:55;;;;;;;181.98;99.07;;;;;;;;;;4912892;29;20285;-86
2023/02/16 12:12:32;;;;;;;351.00;168.18;;;;;;;;;;4903593;29;20103;-88
2023/02/16 12:15:04;;;;;;;261.02;125.03;;;;;;;;;;4903572;29;20032;-87
2023/02/16 12:17:48;;;;;;;272.33;133.48;;;;;;;;;;4902434;29;20032;-88
2023/02/16 12:20:40;;;;;;;187.65;98.10;;;;;;;;;;4903939;29;20040;-87
2023/02/16 12:23:17;;;;;;;455.13;230.88;;;;;;;;;;4907613;29;20040;-88
2023/02/16 12:25:55;;;;;;;218.75;108.43;;;;;;;;;;4903284;29;20028;-88
2023/02/16 12:28:25;;;;;;;391.08;187.73;;;;;;;;;;4892237;29;20030;-88
2023/02/16 12:31:27;;;;;;;232.30;116.95;;;;;;;;;;4919814;29;20032;-87
2023/02/16 12:33:56;;;;;;;269.33;155.38;;;;;;;;;;4809522;29;20057;-88
2023/02/16 12:36:25;;;;;;;110.93;64.97;;;;;;;;;;4805291;29;20059;-88
2023/02/16 12:39:10;;;;;;;65.38;38.60;;;;;;;;;;4813465;29;20512;-88
2023/02/16 12:41:39;;;;;;;260.60;150.27;;;;;;;;;;4827488;29;20438;-89
2023/02/16 12:44:10;;;;;;;114.90;68.20;;;;;;;;;;4794104;29;20045;-84
2023/02/16 12:46:39;;;;;;;71.95;42.75;;;;;;;;;;4801941;29;20117;-87
2023/02/16 12:49:20;;;;;;;153.35;91.03;;;;;;;;;;4821985;29;20054;-85
2023/02/16 12:52:06;;;;;;;91.78;54.50;;;;;;;;;;4823752;29;20095;-91
2023/02/16 12:54:37;;;;;;;107.90;63.83;;;;;;;;;;4827115;29;20030;-93
2023/02/16 12:57:10;;;;;;;121.35;73.95;;;;;;;;;;4827614;29;20502;-92
2023/02/16 12:59:36;;;;;;;;;;;;;;;;;;4825861;29;20038;-94
2023/02/16 13:02:04;;;;;;;78.88;45.60;;;;;;;;;;4812292;29;19917;-93
2023/02/16 13:04:38;;;;;;;72.82;42.00;;;;;;;;;;4809350;29;20047;-90
2023/02/16 13:07:16;;;;;;;49.10;31.55;;;;;;;;;;4810098;29;20046;-94
2023/02/16 13:09:58;;;;;;;96.50;54.28;;;;;;;;;;4845638;29;20032;-85
2023/02/16 13:12:27;;;;;;;51.88;31.88;;;;;;;;;;4921338;29;20028;-91
2023/02/16 13:14:58;;;;;;;93.55;52.05;;;;;;;;;;4904253;29;20024;-93
2023/02/16 13:17:30;;;;;;;181.50;92.82;;;;;;;;;;4921573;29;20031;-85
2023/02/16 13:19:56;;;;;;;163.63;89.22;;;;;;;;;;4905200;29;20080;-89
2023/02/16 13:22:29;;;;;;;131.40;68.82;;;;;;;;;;4921646;29;20036;-87
2023/02/16 13:25:13;;;;;;;82.47;46.65;;;;;;;;;;4903258;29;20029;-87
2023/02/16 13:27:51;;;;;;;86.10;47.97;;;;;;;;;;4903488;29;20040;-89
2023/02/16 13:30:24;;;;;;;60.38;37.28;;;;;;;;;;4889372;29;20020;-89
2023/02/16 13:33:05;;;;;;;66.88;40.28;;;;;;;;;;4902148;29;20324;-87
2023/02/16 13:35:37;;;;;;;56.83;34.33;;;;;;;;;;4885759;29;20033;-89
2023/02/16 13:38:14;;;;;;;48.67;31.67;;;;;;;;;;4906540;29;20028;-86
2023/02/16 13:40:59;;;;;;;63.35;37.50;;;;;;;;;;4904206;29;20487;-84
2023/02/16 13:43:30;;;;;;;80.13;47.55;;;;;;;;;;4904185;29;20044;-83
2023/02/16 13:45:57;;;;;;;74.85;46.13;;;;;;;;;;4904443;29;20124;-88
2023/02/16 13:48:30;;;;;;;132.32;66.97;;;;;;;;;;4914112;29;20316;-86
2023/02/16 13:54:01;;;;;;;67.20;39.25;;;;;;;;;;4902613;29;20047;-88
2023/02/16 13:56:33;;;;;;;66.75;39.05;;;;;;;;;;4919488;29;20115;-87
2023/02/16 13:58:59;;;;;;;;;;;;;;;;;;4924000;29;20028;-86
2023/02/16 14:01:32;;;;;;;58.38;34.20;;;;;;;;;;4908195;29;19977;-86
2023/02/16 14:04:00;;;;;;;62.58;39.38;;;;;;;;;;4897659;29;20040;-87
2023/02/16 14:09:29;;;;;;;57.95;35.90;;;;;;;;;;4924792;29;20039;-89
2023/02/16 14:11:56;;;;;;;56.45;36.65;;;;;;;;;;4924405;29;20028;-89
2023/02/16 14:14:25;;;;;;;58.95;36.45;;;;;;;;;;4924690;29;20028;-89
2023/02/16 14:16:53;;;;;;;55.45;35.30;;;;;;;;;;4924387;29;20043;-89
2023/02/16 14:19:22;;;;;;;59.15;33.97;;;;;;;;;;4897467;29;20427;-90
2023/02/16 14:21:49;;;;;;;106.53;52.95;;;;;;;;;;4922385;29;20411;-89
2023/02/16 14:24:36;;;;;;;78.75;40.15;;;;;;;;;;4924568;29;20111;-89
2023/02/16 14:27:04;;;;;;;103.97;50.40;;;;;;;;;;4924316;29;20378;-89
2023/02/16 14:29:33;;;;;;;125.82;39.28;;;;;;;;;;4907528;29;20080;-89
2023/02/16 14:32:17;;;;;;;55.58;33.40;;;;;;;;;;4907606;29;20024;-90
2023/02/16 14:34:51;;;;;;;153.05;45.58;;;;;;;;;;4924324;29;20044;-89
2023/02/16 14:37:17;;;;;;;82.22;37.72;;;;;;;;;;4924088;29;20032;-89
2023/02/16 14:39:43;;;;;;;64.43;35.97;;;;;;;;;;4906996;29;20032;-87
2023/02/16 14:42:36;;;;;;;62.95;36.58;;;;;;;;;;4907162;29;20048;-88
2023/02/16 14:45:21;;;;;;;119.43;59.92;;;;;;;;;;4893360;29;20040;-88
2023/02/16 14:47:51;;;;;;;116.55;59.35;;;;;;;;;;4908265;29;20411;-88
2023/02/16 14:50:17;;;;;;;72.05;41.28;;;;;;;;;;4905806;29;20044;-86
2023/02/16 14:52:50;;;;;;;57.60;36.90;;;;;;;;;;4905526;29;20085;-83
2023/02/16 14:55:35;;;;;;;52.95;35.67;;;;;;;;;;4905124;29;20349;-85
2023/02/16 14:58:13;;;;;;;71.20;40.58;;;;;;;;;;4923026;29;20032;-83
2023/02/16 15:00:50;;;;;;;80.40;43.55;;;;;;;;;;4923974;29;20046;-86
2023/02/16 15:03:16;;;;;;;73.70;44.17;;;;;;;;;;4923776;29;20060;-90
2023/02/16 15:08:50;;;;;;;98.30;48.38;;;;;;;;;;4923990;29;20335;-88
2023/02/16 15:11:19;;;;;;;268.85;113.32;;;;;;;;;;4914011;29;20024;-88
2023/02/16 15:13:45;;;;;;;127.93;60.70;;;;;;;;;;4888224;29;20063;-88
2023/02/16 15:16:15;;;;;;;176.32;80.72;;;;;;;;;;4887961;29;20049;-89
2023/02/16 15:19:02;;;;;;;84.10;46.28;;;;;;;;;;4904910;29;20032;-90
2023/02/16 15:21:29;;;;;;;60.63;37.28;;;;;;;;;;4892674;29;20032;-80
2023/02/16 15:23:56;;;;;;;61.47;39.35;;;;;;;;;;4922963;29;20036;-79
2023/02/16 15:26:24;;;;;;;57.72;36.28;;;;;;;;;;4922893;29;20352;-78
2023/02/16 15:28:51;;;;;;;147.25;70.97;;;;;;;;;;4901611;29;20020;-91
2023/02/16 15:31:18;;;;;;;73.57;42.42;;;;;;;;;;4888424;29;20310;-93
2023/02/16 15:33:53;;;;;;;64.55;37.88;;;;;;;;;;4910817;29;20032;-82
2023/02/16 15:39:30;;;;;;;101.22;51.95;;;;;;;;;;4904714;29;20308;-85
2023/02/16 15:42:15;;;;;;;90.35;49.40;;;;;;;;;;4904194;29;20055;-83
2023/02/16 15:44:43;;;;;;;387.30;184.50;;;;;;;;;;4904190;29;20132;-92
2023/02/16 15:47:10;;;;;;;102.68;64.07;;;;;;;;;;4887425;29;20041;-91
2023/02/16 15:49:39;;;;;;;105.30;63.45;;;;;;;;;;4904134;29;20024;-91
2023/02/16 15:52:16;;;;;;;90.05;54.35;;;;;;;;;;4887106;29;20079;-91
2023/02/16 15:54:43;;;;;;;76.38;48.38;;;;;;;;;;4887579;29;20049;-93
2023/02/16 15:57:18;;;;;;;77.95;47.97;;;;;;;;;;4904179;29;20039;-91
2023/02/16 15:59:53;;;;;;;85.35;51.17;;;;;;;;;;4903886;29;20028;-90
2023/02/16 16:02:25;;;;;;;88.90;56.85;;;;;;;;;;4903529;29;20053;-90
2023/02/16 16:04:53;;;;;;;124.70;84.85;;;;;;;;;;4903853;29;20032;-92
2023/02/16 16:07:40;;;;;;;168.07;105.05;;;;;;;;;;4887079;29;20185;-91
2023/02/16 16:10:14;;;;;;;177.23;95.57;;;;;;;;;;4903497;29;20032;-91
2023/02/16 16:12:40;;;;;;;225.05;105.78;;;;;;;;;;4903662;29;20116;-90
2023/02/16 16:15:10;;;;;;;183.73;90.40;;;;;;;;;;4903754;29;20044;-90
2023/02/16 16:17:38;;;;;;;375.48;149.80;;;;;;;;;;4903501;29;20164;-90
2023/02/16 16:20:23;;;;;;;420.63;164.38;;;;;;;;;;4903378;29;20039;-92
2023/02/16 16:23:11;;;;;;;339.45;128.85;;;;;;;;;;4886851;29;20032;-91
2023/02/16 16:25:40;;;;;;;309.98;112.47;;;;;;;;;;4794709;29;20121;-90
2023/02/16 16:28:08;;;;;;;362.55;129.82;;;;;;;;;;4794508;29;20054;-91
2023/02/16 16:30:35;;;;;;;332.25;123.07;;;;;;;;;;4794507;29;20164;-89
2023/02/16 16:33:06;;;;;;;291.73;110.35;;;;;;;;;;4794453;29;20035;-90
2023/02/16 16:35:43;;;;;;;326.10;117.50;;;;;;;;;;4809394;29;20027;-91
2023/02/16 16:38:25;;;;;;;278.45;105.65;;;;;;;;;;4794229;29;20050;-90
2023/02/16 16:40:53;;;;;;;203.85;89.57;;;;;;;;;;4809529;29;20043;-91
2023/02/16 16:43:20;;;;;;;236.93;100.07;;;;;;;;;;4809423;29;20073;-90
2023/02/16 16:45:48;;;;;;;309.92;122.43;;;;;;;;;;4809316;29;20030;-91
2023/02/16 16:48:29;;;;;;;213.77;99.13;;;;;;;;;;4809503;29;20030;-91
2023/02/16 16:51:27;;;;;;;147.30;77.45;;;;;;;;;;4794238;29;20087;-92
2023/02/16 16:53:53;;;;;;;141.52;79.03;;;;;;;;;;4755808;30;20417;-93
2023/02/16 16:56:20;;;;;;;186.90;94.32;;;;;;;;;;4755552;30;20176;-91
2023/02/16 16:58:50;;;;;;;177.45;92.53;;;;;;;;;;4755283;30;20040;-91
2023/02/16 17:01:16;;;;;;;167.02;88.88;;;;;;;;;;4755269;30;20140;-92
2023/02/16 17:03:42;;;;;;;204.27;99.72;;;;;;;;;;4788875;30;20039;-90
2023/02/16 17:06:09;;;;;;;194.25;96.30;;;;;;;;;;4791172;30;20039;-92
2023/02/16 17:08:35;;;;;;;155.00;87.25;;;;;;;;;;4791179;30;20027;-92
2023/02/16 17:11:02;;;;;;;138.70;74.28;;;;;;;;;;4776170;30;20039;-90
2023/02/16 17:13:29;;;;;;;238.00;106.88;;;;;;;;;;4790776;30;20106;-92
2023/02/16 17:15:58;;;;;;;177.85;91.38;;;;;;;;;;4791101;30;20039;-90
2023/02/16 17:18:24;;;;;;;216.25;99.47;;;;;;;;;;4775923;30;20124;-91
2023/02/16 17:23:53;;;;;;;210.68;106.88;;;;;;;;;;4791060;30;20035;-89
2023/02/16 17:26:20;;;;;;;249.13;116.95;;;;;;;;;;4775832;30;20050;-89
2023/02/16 17:28:46;;;;;;;207.98;102.10;;;;;;;;;;4827057;29;20036;-92
2023/02/16 17:31:12;;;;;;;223.90;105.32;;;;;;;;;;4901598;29;20021;-91
2023/02/16 17:33:38;;;;;;;192.77;92.15;;;;;;;;;;4900684;29;20033;-90
2023/02/16 17:36:05;;;;;;;206.57;100.15;;;;;;;;;;4901411;29;20131;-91
2023/02/16 17:38:32;;;;;;;282.38;152.85;;;;;;;;;;4901029;29;20032;-92
2023/02/16 17:40:59;;;;;;;303.48;201.48;;;;;;;;;;4902063;29;20033;-92
2023/02/16 17:43:26;;;;;;;314.25;205.02;;;;;;;;;;4901370;29;20036;-92
2023/02/16 17:45:53;;;;;;;371.42;245.52;;;;;;;;;;4902400;29;20049;-92